Airfield :
LOGIN :

Register | Disclaimer

   EN    FR    IT 

 










Legend :    VFR   Marginal VFR   IFR   Intensive IFR   Very Intensive IFR
Visi :
Ceiling :
>= 8 km
>= 3000ft
5 to 8 km
1000 to 3000 ft
1500m to 5 km
500 to 1000 ft
800 to 1500m
200 to 500 ft
< 800m
< 200 ft
Symbols :   Thunderstorms  Fog  Heavy snow  Heavy precipitations  Wind > 20 kt
SIGMETs :     Misc.  Thunderstorms  Icing  Turbulence  Mountain Waves  Volcanic Ashes







- Airport Elevation : 24 ft
- IATA code : SGD


EKSB - Sonderborg

CURRENT METAR :
  • 100750Z 28013G24KT 240V310 9999 FEW020CB SCT030 05/02 Q1006 RESHRA

EXPIRED METARs :
  • 100721Z 29013KT 250V320 9999 -SHRA BKN020TCU 05/02 Q1006
  • 100650Z 28013G23KT 250V330 9999 -SHRA FEW016TCU 05/01 Q1005
  • 100620Z 29015G26KT 9999 FEW025 05/01 Q1005
  • 100550Z 29013G25KT 9999 SCT023 05/02 Q1005 RESHRA
  • 100520Z 29014KT 9999 -SHRA SCT023 05/01 Q1005

TAF TAF EKSB
Valid from the 10 at 06:00 until the 10 at 15:00 UTC


100550Z 1006/1015 29012KT 9999 SCT012
TEMPO 1006/1015 29015G28KT 4000 SHRA SCT020CB
No reported NOTAMs for that airfield.



MET'MAP, your aeronautical weather chart ! - Copyright ORBIFLY December 2007 - Disclaimer

ORBIFLY MET'MAP TEAM :

Programming & Development : Alexandra Zaïnal
Concept & Development : Baudouin d'Aumeries
Co-Development & Prog : Marc-Olivier Méhu
Technical & hardware support : Manuel Goepfert

Contact : metmap@orbifly.com




SOURCES & CREDITS :

   NOAA